Airport View

Enter AWOS ICAO identifier for current METAR.

ex. KFNL

KEVB 202347Z 10012G19KT 10SM SCT040 26/18 A3015

21 Sep 2019 00:52

Frequency: 124.625

Phone: 386-409-4705

Other Area AWOS: KDAB - KOMN - KDED - KSFB

TAF KDAB 202320Z 2100/2124 07010KT P6SM VCSH FEW040 FM210200 07007KT P6SM SCT040 FM211400 08016G23KT P6SM SCT030